Terminal Aerodrome Forecast
Issued by NWS

Home | Current Version | Previous Version | Graphics & Text | Print | Product List | Glossary Off
Versions: 1 2 3 4 5 6 7 8 9 10 11 12 13 14 15

795
FTUS43 KMPX 122320
TAFAXN
TAF
KAXN 122320Z 1300/1324 33012KT P6SM SKC
     FM130500 33003KT P6SM FEW250
     FM131200 13003KT P6SM SCT250
     FM131600 14014KT P6SM BKN100=

USA.gov is the U.S. government's official web portal to all federal, state and local government web resources and services.